Time;durP1;ratioP1;P1;durP2;ratioP2;P2;SDS_P1;SDS_P2;PMS_P1;PMS_P2;Temp;Humidity;BMP_temperature;BMP_pressure;BME280_temperature;BME280_humidity;BME280_pressure;Samples;Min_cycle;Max_cycle;Signal;HPM_P1;HPM_P2
2023/06/13 00:00:47;;;;;;;8.10;4.30;;;24.90;34.10;;;;;;5048257;28;20037;-62
2023/06/13 00:03:13;;;;;;;7.50;4.18;;;24.90;34.20;;;;;;5053960;28;20385;-62
2023/06/13 00:05:46;;;;;;;7.72;4.10;;;24.90;34.20;;;;;;5040568;28;20100;-63
2023/06/13 00:08:19;;;;;;;8.18;3.65;;;24.90;34.90;;;;;;5057113;28;20013;-62
2023/06/13 00:10:48;;;;;;;8.15;3.97;;;24.90;34.40;;;;;;5023912;28;20061;-62
2023/06/13 00:13:15;;;;;;;8.48;4.47;;;24.80;34.30;;;;;;5045445;28;20039;-62
2023/06/13 00:15:56;;;;;;;9.52;4.43;;;24.70;34.40;;;;;;5034419;28;20037;-62
2023/06/13 00:18:22;;;;;;;6.88;3.88;;;24.70;34.50;;;;;;5052638;28;20033;-62
2023/06/13 00:20:54;;;;;;;8.68;4.00;;;24.70;34.70;;;;;;5029224;28;20034;-62
2023/06/13 00:23:21;;;;;;;8.27;4.20;;;24.70;34.80;;;;;;5050767;28;20057;-62
2023/06/13 00:25:47;;;;;;;6.88;3.75;;;24.60;34.90;;;;;;5046487;28;20115;-62
2023/06/13 00:28:13;;;;;;;9.13;4.38;;;24.60;35.00;;;;;;5056689;28;20071;-62
2023/06/13 00:30:39;;;;;;;12.60;4.35;;;24.60;35.20;;;;;;5032730;28;20029;-62
2023/06/13 00:33:06;;;;;;;8.07;4.22;;;24.50;35.10;;;;;;5041009;28;20025;-62
2023/06/13 00:35:31;;;;;;;7.82;4.10;;;24.50;35.20;;;;;;5033634;28;20025;-62
2023/06/13 00:37:57;;;;;;;8.18;3.85;;;24.50;35.20;;;;;;5041679;28;20041;-62
2023/06/13 00:40:25;;;;;;;8.77;4.05;;;24.50;35.20;;;;;;5035856;28;20025;-62
2023/06/13 00:42:53;;;;;;;9.02;4.38;;;24.40;35.20;;;;;;5035417;28;20438;-62
2023/06/13 00:45:25;;;;;;;6.65;4.05;;;24.40;35.20;;;;;;5023273;28;20053;-62
2023/06/13 00:47:54;;;;;;;7.63;4.10;;;24.40;35.20;;;;;;5047101;28;20454;-62
2023/06/13 00:50:26;;;;;;;8.27;3.97;;;24.40;35.30;;;;;;5043649;28;20520;-62
2023/06/13 00:52:55;;;;;;;9.07;4.22;;;24.40;35.30;;;;;;5043843;28;20029;-62
2023/06/13 00:55:23;;;;;;;7.90;4.13;;;24.30;35.30;;;;;;5040329;28;20029;-62
2023/06/13 00:57:53;;;;;;;7.80;4.18;;;24.40;35.50;;;;;;5044528;28;20036;-62
2023/06/13 01:00:22;;;;;;;6.93;3.93;;;24.30;35.70;;;;;;5029226;28;20018;-62
2023/06/13 01:02:49;;;;;;;7.07;3.95;;;24.20;35.70;;;;;;5017026;28;20095;-62
2023/06/13 01:05:15;;;;;;;6.70;3.80;;;24.20;35.80;;;;;;5018617;28;20018;-62
2023/06/13 01:07:41;;;;;;;6.65;3.75;;;24.20;36.00;;;;;;5038374;28;20422;-62
2023/06/13 01:10:09;;;;;;;9.65;4.45;;;24.20;36.00;;;;;;5044014;28;20059;-62
2023/06/13 01:12:45;;;;;;;8.48;4.10;;;24.10;36.30;;;;;;5041620;28;20045;-62
2023/06/13 01:15:16;;;;;;;8.88;4.60;;;24.10;36.00;;;;;;5034568;28;20053;-62
2023/06/13 01:17:57;;;;;;;8.52;4.28;;;24.10;36.10;;;;;;5029728;28;20120;-62
2023/06/13 01:20:26;;;;;;;7.80;4.10;;;24.00;36.20;;;;;;5023076;28;20114;-62
2023/06/13 01:23:34;;;;;;;6.75;3.85;;;24.00;37.10;;;;;;5035196;28;20131;-62
2023/06/13 01:26:13;;;;;;;7.75;4.30;;;24.00;36.60;;;;;;5043094;28;20049;-62
2023/06/13 01:28:43;;;;;;;10.57;4.88;;;23.90;36.60;;;;;;5052961;28;20063;-62
2023/06/13 01:31:13;;;;;;;9.55;4.00;;;23.90;36.60;;;;;;5039317;28;20397;-62
2023/06/13 01:33:42;;;;;;;8.27;4.10;;;23.90;36.60;;;;;;5049661;28;20458;-62
2023/06/13 01:36:09;;;;;;;8.30;4.65;;;23.90;36.60;;;;;;5022772;28;20030;-62
2023/06/13 01:38:36;;;;;;;6.93;4.38;;;23.90;36.60;;;;;;5050522;28;20029;-62
2023/06/13 01:41:02;;;;;;;7.43;4.28;;;23.80;36.70;;;;;;5032797;28;20037;-62
2023/06/13 01:43:29;;;;;;;9.07;4.57;;;23.80;36.70;;;;;;5027840;28;20125;-62
2023/06/13 01:46:17;;;;;;;7.85;4.35;;;23.70;36.70;;;;;;5043324;28;20053;-62
2023/06/13 01:48:54;;;;;;;7.10;4.20;;;23.80;36.80;;;;;;5042903;28;20033;-62
2023/06/13 01:51:24;;;;;;;8.63;4.13;;;23.70;36.90;;;;;;5042486;28;20060;-62
2023/06/13 01:53:56;;;;;;;7.15;4.07;;;23.70;37.00;;;;;;5028636;28;20128;-62
2023/06/13 01:56:28;;;;;;;9.07;4.57;;;23.60;37.10;;;;;;5038466;28;20033;-62
2023/06/13 01:58:57;;;;;;;7.07;4.00;;;23.60;37.20;;;;;;5034060;28;20461;-62
2023/06/13 02:01:28;;;;;;;7.05;4.25;;;23.60;37.20;;;;;;5027644;28;20025;-61
2023/06/13 02:03:54;;;;;;;8.95;4.47;;;23.60;37.30;;;;;;5023204;28;20037;-62
2023/06/13 02:06:20;;;;;;;8.20;4.00;;;23.50;37.40;;;;;;5026712;28;20017;-62
2023/06/13 02:08:46;;;;;;;7.50;3.92;;;23.50;37.50;;;;;;5032143;28;20113;-63
2023/06/13 02:11:12;;;;;;;8.57;4.90;;;23.50;37.50;;;;;;5028172;28;20125;-62
2023/06/13 02:13:38;;;;;;;7.05;4.15;;;23.40;37.50;;;;;;5022450;28;20036;-62
2023/06/13 02:16:04;;;;;;;7.45;4.38;;;23.40;37.60;;;;;;5030313;28;20025;-62
2023/06/13 02:18:30;;;;;;;8.38;4.57;;;23.40;37.60;;;;;;5033074;28;20112;-63
2023/06/13 02:20:56;;;;;;;8.88;4.32;;;23.40;37.70;;;;;;5026420;28;20120;-62
2023/06/13 02:23:23;;;;;;;8.15;4.13;;;23.40;37.80;;;;;;5031847;28;20409;-62
2023/06/13 02:25:51;;;;;;;7.85;4.90;;;23.30;37.90;;;;;;5030897;28;20373;-62
2023/06/13 02:28:18;;;;;;;7.70;4.40;;;23.30;37.90;;;;;;5029080;28;20022;-62
2023/06/13 02:30:47;;;;;;;7.40;4.25;;;23.30;38.00;;;;;;5031521;28;20027;-62
2023/06/13 02:33:14;;;;;;;8.20;4.75;;;23.30;38.00;;;;;;5028978;28;20113;-62
2023/06/13 02:35:40;;;;;;;9.80;4.78;;;23.20;38.00;;;;;;5025341;28;20490;-62
2023/06/13 02:38:07;;;;;;;8.02;4.70;;;23.20;38.00;;;;;;5029874;28;20033;-62
2023/06/13 02:40:35;;;;;;;10.13;4.80;;;23.20;38.00;;;;;;5031279;28;20025;-62
2023/06/13 02:43:01;;;;;;;11.38;5.40;;;23.20;38.10;;;;;;5029507;28;20183;-62
2023/06/13 02:45:27;;;;;;;7.93;5.22;;;23.10;38.10;;;;;;5032820;28;20032;-62
2023/06/13 02:47:54;;;;;;;8.13;5.28;;;23.10;38.10;;;;;;5029273;28;20130;-62
2023/06/13 02:50:21;;;;;;;12.82;5.05;;;23.00;38.10;;;;;;5027817;28;20473;-62
2023/06/13 02:52:47;;;;;;;9.48;5.28;;;23.00;38.20;;;;;;5024500;28;20466;-62
2023/06/13 02:55:13;;;;;;;7.18;4.40;;;23.00;38.30;;;;;;5023197;28;20041;-62
2023/06/13 02:57:40;;;;;;;9.73;4.75;;;23.00;38.30;;;;;;5014573;28;20026;-62
2023/06/13 03:00:11;;;;;;;8.52;4.90;;;23.00;38.40;;;;;;5030500;28;20037;-62
2023/06/13 03:02:39;;;;;;;9.00;5.28;;;22.90;38.40;;;;;;5030102;28;20520;-62
2023/06/13 03:05:14;;;;;;;11.52;5.30;;;22.90;38.50;;;;;;5030804;28;20057;-62
2023/06/13 03:07:46;;;;;;;7.65;4.60;;;22.90;38.50;;;;;;5029995;28;20049;-62
2023/06/13 03:10:14;;;;;;;8.30;4.45;;;22.90;38.50;;;;;;5024313;28;20022;-63
2023/06/13 03:12:41;;;;;;;7.93;4.65;;;22.80;39.30;;;;;;5030248;28;20040;-62
2023/06/13 03:15:08;;;;;;;7.55;4.32;;;22.80;38.80;;;;;;5028376;28;20025;-62
2023/06/13 03:17:34;;;;;;;8.07;4.72;;;22.80;38.90;;;;;;5022880;28;20057;-62
2023/06/13 03:20:02;;;;;;;8.30;4.70;;;22.80;38.90;;;;;;5023720;28;20032;-62
2023/06/13 03:22:28;;;;;;;8.23;4.70;;;22.80;39.00;;;;;;5013554;28;20028;-62
2023/06/13 03:24:53;;;;;;;8.93;5.10;;;22.70;38.90;;;;;;5020430;28;20042;-62
2023/06/13 03:27:19;;;;;;;7.72;4.93;;;22.70;39.00;;;;;;5027806;28;20061;-62
2023/06/13 03:29:46;;;;;;;8.20;4.25;;;22.70;39.10;;;;;;5014753;28;20025;-62
2023/06/13 03:32:12;;;;;;;7.47;4.28;;;22.70;39.10;;;;;;5028067;28;20103;-62
2023/06/13 03:34:40;;;;;;;7.72;4.40;;;22.70;39.10;;;;;;5025609;28;20083;-62
2023/06/13 03:37:08;;;;;;;7.93;4.75;;;22.60;39.20;;;;;;5029295;28;20028;-62
2023/06/13 03:39:35;;;;;;;8.88;5.00;;;22.60;39.30;;;;;;5032427;28;20080;-62
2023/06/13 03:42:02;;;;;;;7.60;4.50;;;22.60;39.30;;;;;;5026501;28;20029;-62
2023/06/13 03:44:29;;;;;;;7.65;4.47;;;22.60;39.40;;;;;;5042233;28;20025;-62
2023/06/13 03:46:57;;;;;;;9.65;4.53;;;22.60;39.40;;;;;;5022392;28;20030;-62
2023/06/13 03:49:23;;;;;;;8.70;4.63;;;22.50;39.30;;;;;;5022731;28;20029;-62
2023/06/13 03:51:50;;;;;;;7.82;4.68;;;22.60;39.40;;;;;;5026133;28;20030;-62
2023/06/13 03:54:16;;;;;;;8.70;4.88;;;22.50;39.40;;;;;;5024076;28;20029;-62
2023/06/13 03:56:42;;;;;;;9.55;4.88;;;22.50;39.40;;;;;;5027368;28;20029;-62
2023/06/13 03:59:08;;;;;;;8.45;4.75;;;22.50;39.50;;;;;;5023450;28;20025;-62
2023/06/13 04:01:34;;;;;;;8.63;4.88;;;22.50;39.60;;;;;;5042571;28;20064;-62
2023/06/13 04:04:00;;;;;;;7.07;4.13;;;22.40;39.60;;;;;;5025578;28;20120;-62
2023/06/13 04:06:28;;;;;;;9.45;4.45;;;22.50;39.60;;;;;;5013350;28;20018;-62
2023/06/13 04:08:57;;;;;;;11.13;5.05;;;22.40;39.60;;;;;;5026485;28;20430;-62
2023/06/13 04:11:24;;;;;;;9.23;4.65;;;22.40;39.60;;;;;;5013430;28;20076;-62
2023/06/13 04:13:50;;;;;;;8.85;4.70;;;22.40;39.70;;;;;;5026936;28;20022;-62
2023/06/13 04:16:16;;;;;;;7.70;4.60;;;22.40;39.80;;;;;;5029966;28;20043;-62
2023/06/13 04:18:42;;;;;;;8.57;5.13;;;22.40;39.80;;;;;;5026836;28;20470;-61
2023/06/13 04:21:08;;;;;;;9.32;4.68;;;22.40;39.80;;;;;;5029761;28;20036;-61
2023/06/13 04:23:34;;;;;;;7.53;4.38;;;22.50;39.90;;;;;;5028062;28;20034;-61
2023/06/13 04:26:02;;;;;;;8.60;4.35;;;22.50;39.90;;;;;;5029748;28;20018;-62
2023/06/13 04:28:29;;;;;;;7.18;4.07;;;22.50;39.90;;;;;;5023246;28;20026;-62
2023/06/13 04:30:56;;;;;;;9.60;5.28;;;22.50;39.80;;;;;;5028768;28;20098;-62
2023/06/13 04:33:24;;;;;;;8.57;5.05;;;22.50;39.70;;;;;;5011361;28;20399;-62
2023/06/13 04:35:50;;;;;;;7.90;4.50;;;22.60;39.70;;;;;;5034027;28;20029;-62
2023/06/13 04:38:22;;;;;;;7.85;4.93;;;22.60;39.70;;;;;;5027162;28;20120;-62
2023/06/13 04:40:48;;;;;;;10.60;4.75;;;22.60;39.80;;;;;;5033611;28;20061;-62
2023/06/13 04:43:14;;;;;;;7.93;4.22;;;22.60;39.80;;;;;;5034018;28;20072;-62
2023/06/13 04:45:44;;;;;;;7.65;4.80;;;22.60;39.90;;;;;;5031170;28;20510;-62
2023/06/13 04:48:13;;;;;;;9.00;4.85;;;22.60;39.90;;;;;;5029419;28;20044;-62
2023/06/13 04:50:41;;;;;;;9.13;5.10;;;22.60;40.00;;;;;;5034815;28;20106;-62
2023/06/13 04:53:16;;;;;;;7.93;4.55;;;22.70;40.00;;;;;;5026692;28;20076;-62
2023/06/13 04:55:42;;;;;;;7.20;4.50;;;22.70;40.10;;;;;;5026343;28;20506;-61
2023/06/13 04:58:08;;;;;;;8.23;4.40;;;22.80;40.10;;;;;;5034094;28;20029;-62
2023/06/13 05:00:33;;;;;;;8.30;4.47;;;22.70;39.90;;;;;;5016888;28;20036;-62
2023/06/13 05:03:02;;;;;;;9.95;4.88;;;22.80;40.00;;;;;;5034584;28;20103;-62
2023/06/13 05:05:28;;;;;;;8.23;5.03;;;22.80;39.90;;;;;;5034785;28;20048;-61
2023/06/13 05:07:57;;;;;;;9.07;5.07;;;22.80;39.90;;;;;;5033993;28;20558;-62
2023/06/13 05:10:27;;;;;;;8.07;4.80;;;22.90;39.90;;;;;;5024457;28;20044;-62
2023/06/13 05:12:53;;;;;;;7.88;4.35;;;23.00;39.90;;;;;;5033485;28;20037;-62
2023/06/13 05:15:22;;;;;;;10.75;4.88;;;23.00;39.80;;;;;;5025371;28;20049;-62
2023/06/13 05:17:54;;;;;;;10.10;5.18;;;23.10;39.60;;;;;;5023237;28;20438;-62
2023/06/13 05:20:22;;;;;;;8.88;5.00;;;23.20;39.60;;;;;;5032405;28;20029;-62
2023/06/13 05:22:50;;;;;;;7.93;5.03;;;23.30;39.40;;;;;;5032122;28;20026;-61
2023/06/13 05:25:17;;;;;;;7.97;4.50;;;23.40;39.40;;;;;;4994494;28;20363;-62
2023/06/13 05:27:43;;;;;;;8.70;4.78;;;23.50;39.30;;;;;;5030416;28;20028;-62
2023/06/13 05:30:09;;;;;;;9.40;4.75;;;23.70;39.40;;;;;;5027811;28;20339;-62
2023/06/13 05:32:35;;;;;;;7.93;4.68;;;23.80;39.30;;;;;;5032917;28;20375;-62
2023/06/13 05:35:01;;;;;;;9.85;5.15;;;23.80;39.20;;;;;;5032800;28;20048;-62
2023/06/13 05:37:28;;;;;;;7.63;4.90;;;23.90;39.30;;;;;;5032113;28;20026;-62
2023/06/13 05:39:54;;;;;;;7.95;4.72;;;23.90;39.20;;;;;;5025192;28;20036;-62
2023/06/13 05:42:20;;;;;;;7.35;4.65;;;24.00;39.30;;;;;;5007408;28;20041;-62
2023/06/13 05:44:46;;;;;;;9.73;4.85;;;24.10;39.30;;;;;;5030447;28;20061;-61
2023/06/13 05:47:12;;;;;;;7.50;4.60;;;24.20;39.30;;;;;;5031337;28;20057;-62
2023/06/13 05:49:38;;;;;;;7.68;4.57;;;24.30;39.30;;;;;;5028880;28;20158;-62
2023/06/13 05:52:04;;;;;;;8.38;4.55;;;24.40;39.10;;;;;;5029456;28;20027;-62
2023/06/13 05:54:31;;;;;;;9.32;5.22;;;24.40;38.90;;;;;;5028498;28;20025;-62
2023/06/13 05:56:57;;;;;;;7.95;4.80;;;24.50;38.90;;;;;;5018049;28;20080;-62
2023/06/13 05:59:22;;;;;;;8.48;4.97;;;24.60;38.80;;;;;;5022758;28;20050;-62
2023/06/13 06:01:49;;;;;;;9.45;4.53;;;24.60;38.90;;;;;;5025103;28;20113;-62
2023/06/13 06:04:14;;;;;;;7.90;5.05;;;24.60;39.10;;;;;;5027362;28;20026;-62
2023/06/13 06:06:40;;;;;;;8.00;4.50;;;24.70;39.00;;;;;;5027812;28;20435;-62
2023/06/13 06:09:06;;;;;;;8.30;4.88;;;24.80;39.00;;;;;;5025347;28;20135;-62
2023/06/13 06:11:33;;;;;;;9.30;4.90;;;24.90;39.00;;;;;;5030917;28;20033;-62
2023/06/13 06:13:59;;;;;;;7.95;4.60;;;24.90;38.90;;;;;;5023282;28;20445;-61
2023/06/13 06:16:25;;;;;;;7.80;4.47;;;25.00;38.80;;;;;;5025941;28;20140;-62
2023/06/13 06:18:53;;;;;;;8.90;4.50;;;25.10;38.70;;;;;;5023346;28;20037;-62
2023/06/13 06:21:20;;;;;;;7.50;4.53;;;25.20;38.70;;;;;;5032741;28;20026;-62
2023/06/13 06:23:46;;;;;;;8.18;4.65;;;25.30;38.60;;;;;;5032192;28;20071;-62
2023/06/13 06:26:12;;;;;;;7.60;4.57;;;25.30;38.50;;;;;;5032247;28;20030;-62
2023/06/13 06:28:39;;;;;;;8.10;4.68;;;25.40;38.50;;;;;;5032273;28;20120;-62
2023/06/13 06:31:07;;;;;;;7.95;4.53;;;25.50;38.40;;;;;;5031389;28;20312;-61
2023/06/13 06:33:33;;;;;;;10.95;4.93;;;25.60;38.40;;;;;;5025142;28;20073;-62
2023/06/13 06:35:59;;;;;;;8.65;4.45;;;25.70;38.50;;;;;;5030253;28;20099;-61
2023/06/13 06:38:25;;;;;;;6.93;4.15;;;25.90;38.50;;;;;;5033102;28;20079;-62
2023/06/13 06:40:51;;;;;;;7.20;4.32;;;26.00;38.30;;;;;;5026514;28;20041;-61
2023/06/13 06:43:17;;;;;;;7.10;4.60;;;26.00;38.20;;;;;;5028215;28;20061;-61
2023/06/13 06:45:42;;;;;;;7.15;4.43;;;26.10;38.30;;;;;;5031971;28;20105;-62
2023/06/13 06:48:08;;;;;;;7.65;4.30;;;26.30;38.40;;;;;;5023495;28;20064;-62
2023/06/13 06:50:34;;;;;;;7.28;4.75;;;26.40;38.20;;;;;;5031043;28;20362;-62
2023/06/13 06:53:00;;;;;;;9.68;4.25;;;26.50;38.10;;;;;;5027353;28;20040;-62
2023/06/13 06:55:25;;;;;;;8.30;4.60;;;26.70;38.00;;;;;;5031623;28;20025;-62
2023/06/13 06:57:53;;;;;;;8.13;4.50;;;26.80;37.80;;;;;;5030885;28;20033;-62
2023/06/13 07:00:20;;;;;;;9.63;4.47;;;26.90;37.70;;;;;;5031913;28;20072;-61
2023/06/13 07:02:46;;;;;;;9.30;4.43;;;26.90;37.60;;;;;;5026332;28;20351;-61
2023/06/13 07:05:12;;;;;;;10.48;4.75;;;27.10;37.60;;;;;;5009854;28;20028;-61
2023/06/13 07:07:38;;;;;;;9.48;4.75;;;27.20;37.50;;;;;;5014260;28;20036;-62
2023/06/13 07:10:05;;;;;;;8.00;4.28;;;27.30;37.40;;;;;;5014036;28;20038;-62
2023/06/13 07:12:32;;;;;;;8.13;4.35;;;27.40;37.40;;;;;;5020381;28;20033;-62
2023/06/13 07:14:58;;;;;;;7.60;4.00;;;27.50;37.20;;;;;;5027140;28;20055;-62
2023/06/13 07:17:24;;;;;;;7.00;4.15;;;27.60;37.10;;;;;;5027134;28;20221;-62
2023/06/13 07:19:49;;;;;;;6.60;3.92;;;27.80;37.00;;;;;;5032443;28;20141;-62
2023/06/13 07:22:15;;;;;;;7.78;4.20;;;27.90;36.90;;;;;;5030456;28;20325;-62
2023/06/13 07:24:41;;;;;;;8.38;4.53;;;28.10;37.00;;;;;;5031060;28;20026;-62
2023/06/13 07:27:07;;;;;;;7.32;4.20;;;28.20;36.90;;;;;;5030848;28;20373;-62
2023/06/13 07:29:33;;;;;;;8.20;4.13;;;28.40;36.80;;;;;;5032336;28;20033;-62
2023/06/13 07:32:00;;;;;;;8.30;4.47;;;28.60;36.50;;;;;;5024817;28;20423;-63
2023/06/13 07:34:26;;;;;;;8.10;4.10;;;28.70;36.20;;;;;;5019158;28;20029;-62
2023/06/13 07:36:54;;;;;;;8.80;4.47;;;28.80;36.00;;;;;;5032324;28;20094;-62
2023/06/13 07:39:20;;;;;;;8.93;4.32;;;28.90;35.80;;;;;;5031635;28;20036;-62
2023/06/13 07:41:48;;;;;;;7.80;4.15;;;29.00;35.50;;;;;;5032391;28;20018;-63
2023/06/13 07:44:14;;;;;;;7.63;3.88;;;29.10;35.70;;;;;;5031307;28;20073;-63
2023/06/13 07:46:41;;;;;;;7.95;4.28;;;29.20;35.50;;;;;;5024590;28;20045;-62
2023/06/13 07:49:07;;;;;;;7.03;4.18;;;29.30;35.40;;;;;;5032217;28;20033;-62
2023/06/13 07:51:33;;;;;;;7.75;3.80;;;29.40;35.30;;;;;;5031905;28;20030;-63
2023/06/13 07:54:00;;;;;;;8.52;4.05;;;29.50;35.20;;;;;;5026531;28;20331;-62
2023/06/13 07:56:25;;;;;;;8.25;3.58;;;29.60;35.00;;;;;;5031292;28;20064;-62
2023/06/13 07:58:51;;;;;;;8.25;3.97;;;29.70;34.90;;;;;;5032158;28;20109;-62
2023/06/13 08:01:17;;;;;;;6.40;3.80;;;29.80;34.80;;;;;;5031334;28;20470;-63
2023/06/13 08:03:46;;;;;;;8.25;3.83;;;29.90;34.70;;;;;;5025967;28;20100;-62
2023/06/13 08:06:12;;;;;;;6.22;3.60;;;30.00;34.40;;;;;;5028161;28;20018;-62
2023/06/13 08:08:38;;;;;;;6.80;3.80;;;30.10;34.20;;;;;;5030489;28;20627;-62
2023/06/13 08:11:03;;;;;;;8.18;4.32;;;30.10;34.00;;;;;;5030198;28;20118;-63
2023/06/13 08:13:29;;;;;;;8.32;3.92;;;30.20;34.00;;;;;;5033583;28;20021;-62
2023/06/13 08:15:56;;;;;;;6.38;3.80;;;30.30;34.00;;;;;;5034804;28;20423;-63
2023/06/13 08:18:21;;;;;;;7.30;3.83;;;30.40;33.80;;;;;;5033344;28;20120;-62
2023/06/13 08:20:48;;;;;;;8.55;4.28;;;30.40;33.60;;;;;;5035604;28;20171;-63
2023/06/13 08:23:17;;;;;;;6.82;3.88;;;30.50;33.30;;;;;;5018060;28;20038;-63
2023/06/13 08:25:43;;;;;;;7.38;3.33;;;30.50;33.20;;;;;;5028786;28;20051;-63
2023/06/13 08:28:09;;;;;;;6.18;3.30;;;30.60;33.20;;;;;;5023513;28;20109;-63
2023/06/13 08:30:35;;;;;;;7.72;4.05;;;30.70;33.10;;;;;;5032771;28;20033;-62
2023/06/13 08:33:02;;;;;;;7.65;3.83;;;30.80;33.00;;;;;;5034092;28;20493;-63
2023/06/13 08:35:30;;;;;;;6.13;3.83;;;30.90;32.90;;;;;;5033292;28;20083;-62
2023/06/13 08:37:56;;;;;;;8.07;3.80;;;31.00;32.80;;;;;;5034857;28;20524;-62
2023/06/13 08:40:22;;;;;;;8.52;3.63;;;31.00;32.70;;;;;;5033928;28;20383;-63
2023/06/13 08:42:49;;;;;;;8.13;3.90;;;31.10;32.60;;;;;;5034503;28;20469;-62
2023/06/13 08:45:15;;;;;;;8.70;3.83;;;31.20;32.60;;;;;;5031108;28;20071;-63
2023/06/13 08:47:46;;;;;;;9.75;4.28;;;31.30;32.50;;;;;;5031117;28;20024;-63
2023/06/13 08:50:18;;;;;;;5.85;3.30;;;31.40;32.40;;;;;;5034768;28;20447;-63
2023/06/13 08:52:46;;;;;;;12.25;3.88;;;31.50;32.30;;;;;;5034595;28;20466;-63
2023/06/13 08:55:14;;;;;;;7.68;3.45;;;31.60;31.90;;;;;;5035619;28;20060;-63
2023/06/13 08:57:41;;;;;;;9.15;3.53;;;31.60;31.60;;;;;;5031761;28;20018;-63
2023/06/13 09:00:11;;;;;;;8.57;3.38;;;31.70;31.60;;;;;;5034664;28;20025;-63
2023/06/13 09:02:42;;;;;;;6.55;3.75;;;31.80;31.20;;;;;;5026586;28;20118;-63
2023/06/13 09:05:15;;;;;;;6.32;3.17;;;31.80;30.70;;;;;;5035360;28;20345;-63
2023/06/13 09:07:44;;;;;;;7.95;3.97;;;31.90;30.40;;;;;;5032802;28;20083;-63
2023/06/13 09:10:11;;;;;;;7.95;3.60;;;32.00;30.20;;;;;;5034341;28;20025;-63
2023/06/13 09:12:41;;;;;;;7.15;3.40;;;32.00;30.70;;;;;;5034316;28;20084;-62
2023/06/13 09:15:07;;;;;;;;;;;32.00;30.00;;;;;;5030951;28;20026;-63
2023/06/13 09:17:34;;;;;;;5.68;3.00;;;32.10;30.20;;;;;;5032230;28;20308;-63
2023/06/13 09:20:00;;;;;;;7.50;3.40;;;32.10;29.90;;;;;;5033737;28;20151;-63
2023/06/13 09:22:27;;;;;;;6.20;3.25;;;32.20;29.70;;;;;;5034308;28;20044;-63
2023/06/13 09:24:52;;;;;;;5.90;3.20;;;32.30;29.70;;;;;;5025881;28;20034;-63
2023/06/13 09:27:18;;;;;;;6.85;3.50;;;32.30;29.40;;;;;;5034153;28;20114;-63
2023/06/13 09:29:47;;;;;;;7.65;3.53;;;32.40;29.30;;;;;;5033162;28;20025;-63
2023/06/13 09:32:14;;;;;;;5.60;2.90;;;32.50;29.20;;;;;;5026099;28;20106;-63
2023/06/13 09:34:41;;;;;;;6.88;3.63;;;32.60;29.10;;;;;;5025946;28;20442;-63
2023/06/13 09:37:08;;;;;;;6.13;3.38;;;32.60;29.00;;;;;;5028012;28;20362;-63
2023/06/13 09:39:35;;;;;;;6.15;3.15;;;32.70;28.90;;;;;;5032842;28;20403;-63
2023/06/13 09:42:02;;;;;;;6.80;3.17;;;32.80;28.90;;;;;;5033669;28;20052;-63
2023/06/13 09:44:33;;;;;;;6.28;3.58;;;32.80;28.70;;;;;;5026065;28;20036;-63
2023/06/13 09:47:00;;;;;;;6.60;3.17;;;32.80;28.50;;;;;;5015878;28;20435;-63
2023/06/13 09:49:33;;;;;;;6.22;3.60;;;32.80;28.40;;;;;;5034001;28;20076;-63
2023/06/13 09:52:02;;;;;;;6.13;3.45;;;32.90;28.30;;;;;;5033609;28;20108;-63
2023/06/13 09:54:31;;;;;;;6.72;3.20;;;33.00;28.30;;;;;;5026303;28;20029;-62
2023/06/13 09:56:57;;;;;;;7.50;3.33;;;33.00;28.30;;;;;;5032280;28;20061;-63
2023/06/13 09:59:23;;;;;;;7.43;3.83;;;33.10;28.40;;;;;;5033574;28;20017;-63
2023/06/13 10:01:49;;;;;;;7.00;3.83;;;33.10;28.30;;;;;;5032079;28;20137;-63
2023/06/13 10:04:15;;;;;;;6.55;3.67;;;33.10;28.00;;;;;;5032604;28;20124;-63
2023/06/13 10:06:42;;;;;;;7.53;3.25;;;33.20;28.00;;;;;;5031166;28;20151;-63
2023/06/13 10:09:08;;;;;;;6.65;3.38;;;33.10;28.00;;;;;;5032882;28;20044;-63
2023/06/13 10:11:36;;;;;;;6.88;3.30;;;33.20;27.90;;;;;;5028205;28;20458;-63
2023/06/13 10:14:12;;;;;;;7.47;3.60;;;33.20;27.80;;;;;;5032521;28;20040;-63
2023/06/13 10:16:42;;;;;;;5.97;3.20;;;33.40;27.70;;;;;;5032637;28;20382;-63
2023/06/13 10:19:11;;;;;;;7.20;3.60;;;33.40;27.70;;;;;;5031058;28;20041;-62
2023/06/13 10:21:38;;;;;;;6.70;3.75;;;33.40;27.50;;;;;;5030966;28;20083;-63
2023/06/13 10:24:05;;;;;;;7.72;3.85;;;33.50;27.50;;;;;;5026604;28;20132;-62
2023/06/13 10:26:36;;;;;;;8.13;3.60;;;33.50;27.50;;;;;;5033216;28;20087;-62
2023/06/13 10:29:31;;;;;;;7.68;3.45;;;33.60;27.70;;;;;;5032010;28;20095;-62
2023/06/13 10:32:27;;;;;;;7.85;3.63;;;33.60;27.70;;;;;;5031696;28;20045;-62
2023/06/13 10:35:22;;;;;;;7.53;3.85;;;33.70;27.70;;;;;;5029196;28;20120;-63
2023/06/13 10:38:14;;;;;;;7.25;3.25;;;33.60;28.00;;;;;;5032145;28;20037;-62
2023/06/13 10:41:14;;;;;;;5.65;3.25;;;33.60;27.60;;;;;;5032958;28;20040;-62
2023/06/13 10:43:57;;;;;;;8.27;3.85;;;33.60;27.80;;;;;;5026356;28;20101;-63
2023/06/13 10:46:23;;;;;;;6.00;3.50;;;33.60;27.70;;;;;;5030572;28;20033;-62
2023/06/13 10:48:51;;;;;;;6.55;3.22;;;33.60;27.70;;;;;;5025445;28;20044;-62
2023/06/13 10:51:26;;;;;;;6.85;3.28;;;33.60;27.50;;;;;;5032024;28;20037;-62
2023/06/13 10:54:18;;;;;;;6.80;3.58;;;33.70;27.40;;;;;;5028277;28;20029;-62
2023/06/13 10:56:44;;;;;;;7.72;3.88;;;33.70;27.40;;;;;;5020447;28;20099;-63
2023/06/13 10:59:13;;;;;;;6.85;3.92;;;33.70;27.50;;;;;;5023450;28;20025;-62
2023/06/13 11:01:40;;;;;;;7.28;3.80;;;33.80;27.30;;;;;;5029985;28;20040;-63
2023/06/13 11:04:11;;;;;;;8.68;3.30;;;33.70;27.30;;;;;;5026686;28;20079;-63
2023/06/13 11:06:39;;;;;;;6.78;3.78;;;33.80;27.30;;;;;;5024656;28;20033;-63
2023/06/13 11:09:09;;;;;;;8.02;3.88;;;33.80;27.30;;;;;;5025659;28;20017;-63
2023/06/13 11:11:55;;;;;;;8.30;3.80;;;33.80;27.30;;;;;;5025217;28;20520;-63
2023/06/13 11:14:31;;;;;;;6.35;3.33;;;33.80;27.30;;;;;;5026107;28;20079;-63
2023/06/13 11:16:57;;;;;;;6.45;3.60;;;33.80;27.40;;;;;;5031643;28;20419;-63
2023/06/13 11:19:26;;;;;;;6.25;4.18;;;33.90;27.50;;;;;;5024812;28;20033;-62
2023/06/13 11:21:58;;;;;;;7.25;3.65;;;33.90;27.40;;;;;;5031671;28;20040;-63
2023/06/13 11:24:24;;;;;;;7.30;4.00;;;33.90;27.20;;;;;;5023800;28;20438;-63
2023/06/13 11:26:51;;;;;;;7.38;3.58;;;33.90;27.20;;;;;;5029791;28;20057;-63
2023/06/13 11:29:17;;;;;;;7.20;3.40;;;33.90;27.20;;;;;;5025023;28;20037;-63
2023/06/13 11:31:43;;;;;;;8.38;3.78;;;33.90;27.10;;;;;;5032315;28;20040;-62
2023/06/13 11:34:20;;;;;;;7.22;3.83;;;33.90;27.10;;;;;;5030438;28;20025;-62
2023/06/13 11:36:46;;;;;;;6.25;3.63;;;33.90;26.90;;;;;;5034768;28;20039;-63
2023/06/13 11:39:26;;;;;;;7.45;3.72;;;33.90;27.00;;;;;;5029694;28;20060;-63
2023/06/13 11:41:52;;;;;;;6.13;3.58;;;33.90;27.10;;;;;;5033344;28;20148;-63
2023/06/13 11:44:19;;;;;;;8.85;4.00;;;33.80;26.90;;;;;;5028464;28;20038;-63
2023/06/13 11:46:46;;;;;;;8.05;3.38;;;33.80;26.90;;;;;;5034200;28;20417;-63
2023/06/13 11:49:15;;;;;;;6.85;3.45;;;33.70;26.90;;;;;;5024218;28;20443;-63
2023/06/13 11:51:42;;;;;;;6.78;3.58;;;33.60;27.10;;;;;;5033552;28;20033;-63
2023/06/13 11:54:09;;;;;;;8.90;4.18;;;33.60;27.10;;;;;;5042170;28;20508;-63
2023/06/13 11:56:40;;;;;;;6.88;4.00;;;33.40;26.90;;;;;;5027956;28;20336;-63
2023/06/13 11:59:22;;;;;;;6.60;3.53;;;33.30;27.00;;;;;;5008850;28;20133;-63
2023/06/13 12:01:58;;;;;;;7.18;3.45;;;33.10;27.00;;;;;;5037036;28;20164;-63
2023/06/13 12:04:26;;;;;;;7.40;4.20;;;33.10;27.20;;;;;;5022760;28;20088;-63
2023/06/13 12:06:53;;;;;;;5.88;3.42;;;33.00;27.20;;;;;;5026385;28;20030;-63
2023/06/13 12:09:19;;;;;;;6.40;3.72;;;33.00;27.20;;;;;;5028879;28;20076;-64
2023/06/13 12:11:45;;;;;;;7.00;3.88;;;32.90;27.30;;;;;;5031362;28;20045;-62
2023/06/13 12:14:12;;;;;;;8.18;4.07;;;32.80;27.30;;;;;;5033428;28;20067;-63
2023/06/13 12:16:39;;;;;;;7.63;4.32;;;32.80;27.20;;;;;;5025802;28;20029;-63
2023/06/13 12:19:09;;;;;;;6.95;3.70;;;32.70;27.10;;;;;;5031436;28;20505;-63
2023/06/13 12:21:36;;;;;;;7.57;4.40;;;32.60;27.10;;;;;;5032452;28;20370;-63
2023/06/13 12:24:07;;;;;;;7.63;4.13;;;32.50;27.20;;;;;;5031354;28;20067;-62
2023/06/13 12:26:34;;;;;;;6.78;3.97;;;32.40;27.20;;;;;;5042665;28;20022;-62
2023/06/13 12:29:02;;;;;;;9.25;4.25;;;32.30;27.40;;;;;;5026282;28;20037;-62
2023/06/13 12:31:43;;;;;;;7.38;3.95;;;32.30;27.50;;;;;;5030323;28;20304;-62
2023/06/13 12:34:14;;;;;;;7.80;4.00;;;32.20;27.40;;;;;;5035992;28;20033;-63
2023/06/13 12:36:45;;;;;;;6.13;3.47;;;32.20;27.70;;;;;;5036793;28;20052;-62
2023/06/13 12:39:16;;;;;;;7.38;3.80;;;32.20;27.80;;;;;;5033222;28;20078;-62
2023/06/13 12:41:50;;;;;;;7.00;4.15;;;32.10;27.80;;;;;;5025848;28;20029;-63
2023/06/13 12:44:17;;;;;;;7.85;4.22;;;31.90;27.80;;;;;;5030501;28;20021;-63
2023/06/13 12:46:45;;;;;;;6.82;4.20;;;31.90;27.80;;;;;;5016581;28;20375;-64
2023/06/13 12:49:13;;;;;;;6.80;3.97;;;31.80;27.90;;;;;;5030437;28;20037;-64
2023/06/13 12:51:44;;;;;;;6.30;3.72;;;31.70;28.00;;;;;;5026646;28;20030;-65